createdAt,value
2023-02-12T00:05:17.802Z,-0.7
2023-02-12T00:10:59.847Z,-0.2
2023-02-12T00:16:10.976Z,-0.4
2023-02-12T00:21:45.702Z,-0.6
2023-02-12T00:27:34.631Z,-0.5
2023-02-12T00:32:59.880Z,-0.1
2023-02-12T00:38:25.105Z,0.1
2023-02-12T00:44:18.530Z,0
2023-02-12T00:49:49.974Z,0
2023-02-12T00:55:07.327Z,-0.2
2023-02-12T01:00:33.648Z,-0.6
2023-02-12T01:06:23.782Z,-0.7
2023-02-12T01:11:56.299Z,-0.8
2023-02-12T01:17:15.249Z,-0.9
2023-02-12T01:22:56.148Z,-1
2023-02-12T01:28:35.642Z,-1
2023-02-12T01:33:50.893Z,-1
2023-02-12T01:39:25.475Z,-0.9
2023-02-12T01:45:06.812Z,-1.1
2023-02-12T01:50:45.972Z,-1.2
2023-02-12T01:56:12.780Z,-1.4
2023-02-12T02:01:38.060Z,-1.5
2023-02-12T02:07:17.938Z,-1.5
2023-02-12T02:12:43.115Z,-1.5
2023-02-12T02:18:35.566Z,-1.3
2023-02-12T02:23:51.924Z,-1.3
2023-02-12T02:29:25.458Z,-1.6
2023-02-12T02:34:58.768Z,-1.9
2023-02-12T02:40:39.192Z,-2
2023-02-12T02:46:04.259Z,-2
2023-02-12T02:51:28.646Z,-1.9
2023-02-12T02:57:24.920Z,-1.9
2023-02-12T03:08:27.857Z,-2.6
2023-02-12T03:13:57.464Z,-2.5
2023-02-12T03:19:30.203Z,-2.4
2023-02-12T03:24:45.097Z,-2.3
2023-02-12T03:30:20.932Z,-2
2023-02-12T03:35:56.013Z,-1.8
2023-02-12T03:41:43.738Z,-1.6
2023-02-12T03:46:53.327Z,-1.5
2023-02-12T03:52:40.283Z,-1.7
2023-02-12T03:58:20.229Z,-1.4
2023-02-12T04:03:45.068Z,-1.6
2023-02-12T04:09:21.377Z,-1.7
2023-02-12T04:14:43.338Z,-1.6
2023-02-12T04:20:14.394Z,-1.5
2023-02-12T04:25:57.082Z,-1.7
2023-02-12T04:31:29.127Z,-2.1
2023-02-12T04:37:12.942Z,-2.2
2023-02-12T04:42:24.382Z,-2.1
2023-02-12T04:48:09.381Z,-2.1
2023-02-12T04:53:35.612Z,-2.1
2023-02-12T04:58:58.183Z,-2
2023-02-12T05:04:42.423Z,-1.8
2023-02-12T05:10:01.805Z,-1.9
2023-02-12T05:15:35.811Z,-2
2023-02-12T05:21:30.847Z,-2.1
2023-02-12T05:26:40.133Z,-2.3
2023-02-12T05:32:36.640Z,-2
2023-02-12T05:38:04.999Z,-1.9
2023-02-12T05:43:26.492Z,-2
2023-02-12T05:48:49.399Z,-2
2023-02-12T05:54:23.222Z,-1.9
2023-02-12T06:00:00.331Z,-1.9
2023-02-12T06:05:55.306Z,-1.8
2023-02-12T06:11:28.003Z,-1.8
2023-02-12T06:16:51.087Z,-1.5
2023-02-12T06:22:32.556Z,-1.3
2023-02-12T06:27:39.058Z,-1.8
2023-02-12T06:33:32.470Z,-2.6
2023-02-12T06:39:03.893Z,-2.7
2023-02-12T06:44:27.211Z,-2.1
2023-02-12T06:49:50.522Z,-1.2
2023-02-12T06:55:35.432Z,-0.8
2023-02-12T07:01:19.297Z,-0.5
2023-02-12T07:06:36.723Z,-0.4
2023-02-12T07:12:02.543Z,-0.1
2023-02-12T07:17:36.130Z,0.2
2023-02-12T07:23:14.042Z,0.2
2023-02-12T07:28:53.297Z,0.4
2023-02-12T07:34:22.881Z,0.3
2023-02-12T07:39:58.381Z,0.3
2023-02-12T07:45:17.982Z,0.4
2023-02-12T07:50:57.046Z,0.3
2023-02-12T07:56:30.572Z,0.3
2023-02-12T08:02:20.173Z,0.7
2023-02-12T08:07:50.044Z,1.1
2023-02-12T08:13:01.495Z,1.6
2023-02-12T08:18:39.058Z,2.3
2023-02-12T08:24:16.340Z,2.6
2023-02-12T08:29:56.578Z,2.5
2023-02-12T08:35:37.794Z,2.9
2023-02-12T08:41:00.116Z,2.7
2023-02-12T08:46:42.771Z,2.7
2023-02-12T08:52:19.861Z,3.3
2023-02-12T08:57:33.734Z,3.7
2023-02-12T09:03:19.718Z,3.5
2023-02-12T09:08:59.504Z,3.5
2023-02-12T09:14:20.751Z,3.6
2023-02-12T09:20:03.321Z,3.4
2023-02-12T09:25:29.654Z,3.6
2023-02-12T09:31:17.051Z,3.9
2023-02-12T09:36:36.755Z,4.2
2023-02-12T09:42:18.456Z,4.3
2023-02-12T09:47:42.101Z,4.4
2023-02-12T09:53:36.621Z,4.6
2023-02-12T09:59:08.877Z,4.6
2023-02-12T10:04:24.122Z,4.7
2023-02-12T10:09:50.835Z,4.7
2023-02-12T10:15:35.616Z,4.7
2023-02-12T10:21:19.880Z,5
2023-02-12T10:26:35.129Z,4.9
2023-02-12T10:32:25.260Z,5
2023-02-12T10:38:09.782Z,5.1
2023-02-12T10:43:43.524Z,5.2
2023-02-12T10:48:53.376Z,5.3
2023-02-12T10:54:31.436Z,5.4
2023-02-12T11:00:13.772Z,5.4
2023-02-12T11:05:53.359Z,5.6
2023-02-12T11:11:11.252Z,5.9
2023-02-12T11:16:49.593Z,5.9
2023-02-12T11:22:28.387Z,5.8
2023-02-12T11:28:14.174Z,6
2023-02-12T11:33:32.246Z,6.3
2023-02-12T11:39:11.754Z,6.2
2023-02-12T11:44:36.662Z,6.6
2023-02-12T11:50:28.930Z,6.6
2023-02-12T11:56:02.669Z,6.8
2023-02-12T12:01:21.031Z,6.9
2023-02-12T12:07:14.700Z,7.2
2023-02-12T12:12:30.138Z,7.3
2023-02-12T12:18:11.721Z,7.3
2023-02-12T12:23:39.548Z,7.3
2023-02-12T12:29:06.613Z,7.5
2023-02-12T12:34:43.755Z,7.6
2023-02-12T12:40:35.710Z,7.9
2023-02-12T12:45:49.647Z,7.9
2023-02-12T12:51:28.825Z,7.8
2023-02-12T12:57:19.465Z,8.1
2023-02-12T13:02:38.185Z,8.3
2023-02-12T13:08:05.242Z,8.1
2023-02-12T13:13:44.251Z,8.1
2023-02-12T13:19:38.991Z,8.2
2023-02-12T13:25:10.527Z,8.3
2023-02-12T13:30:40.572Z,8.6
2023-02-12T13:36:10.307Z,8.6
2023-02-12T13:41:56.575Z,8.6
2023-02-12T13:47:25.649Z,8.8
2023-02-12T13:52:50.855Z,8.7
2023-02-12T13:58:52.415Z,8.7
2023-02-12T14:04:24.422Z,8.8
2023-02-12T14:09:41.033Z,9
2023-02-12T14:15:40.859Z,8.9
2023-02-12T14:20:59.220Z,9
2023-02-12T14:26:34.054Z,8.9
2023-02-12T14:32:17.155Z,8.9
2023-02-12T14:37:53.552Z,8.9
2023-02-12T14:43:44.735Z,8.8
2023-02-12T14:49:21.102Z,8.9
2023-02-12T14:54:32.522Z,8.9
2023-02-12T15:00:14.023Z,8.9
2023-02-12T15:05:47.151Z,8.8
2023-02-12T15:11:15.858Z,8.9
2023-02-12T15:16:53.479Z,8.7
2023-02-12T15:22:34.991Z,8.7
2023-02-12T15:28:15.200Z,8.7
2023-02-12T15:33:29.735Z,8.4
2023-02-12T15:39:05.537Z,8.3
2023-02-12T15:44:50.352Z,8.2
2023-02-12T15:50:26.877Z,8
2023-02-12T15:56:12.665Z,8
2023-02-12T16:01:21.660Z,7.9
2023-02-12T16:07:02.511Z,7.7
2023-02-12T16:12:47.057Z,7.4
2023-02-12T16:18:11.360Z,7.3
2023-02-12T16:23:48.558Z,7
2023-02-12T16:29:27.761Z,6.8
2023-02-12T16:34:54.164Z,6.7
2023-02-12T16:40:40.510Z,6.7
2023-02-12T16:46:02.499Z,6.6
2023-02-12T16:51:43.709Z,6.4
2023-02-12T16:57:01.360Z,6.4
2023-02-12T17:02:47.570Z,6.6
2023-02-12T17:08:24.178Z,6.3
2023-02-12T17:13:53.159Z,6.1
2023-02-12T17:19:30.838Z,6.1
2023-02-12T17:25:06.938Z,6.1
2023-02-12T17:30:27.203Z,6.3
2023-02-12T17:35:47.777Z,5.6
2023-02-12T17:41:27.306Z,5.3
2023-02-12T17:47:09.917Z,5.3
2023-02-12T17:52:54.033Z,5.5
2023-02-12T17:58:03.590Z,5.8
2023-02-12T18:03:45.816Z,5.7
2023-02-12T18:09:30.090Z,5.8
2023-02-12T18:14:59.159Z,5.5
2023-02-12T18:20:19.319Z,5.3
2023-02-12T18:25:48.560Z,5.2
2023-02-12T18:31:38.721Z,5
2023-02-12T18:36:59.347Z,5
2023-02-12T18:42:46.947Z,4.7
2023-02-12T18:48:04.010Z,4.3
2023-02-12T18:53:40.582Z,4.1
2023-02-12T18:59:17.203Z,3.8
2023-02-12T19:04:41.091Z,3.7
2023-02-12T19:10:36.158Z,3.5
2023-02-12T19:16:08.641Z,3.8
2023-02-12T19:21:31.507Z,4.2
2023-02-12T19:27:03.818Z,4.6
2023-02-12T19:32:32.161Z,4.2
2023-02-12T19:38:16.196Z,4.4
2023-02-12T19:43:37.208Z,4.2
2023-02-12T19:49:30.722Z,3.8
2023-02-12T19:54:55.524Z,3.7
2023-02-12T20:00:11.554Z,3.8
2023-02-12T20:05:44.933Z,4.2
2023-02-12T20:11:25.545Z,3.7
2023-02-12T20:16:58.488Z,3.1
2023-02-12T20:22:32.856Z,2.8
2023-02-12T20:27:54.758Z,2.6
2023-02-12T20:33:29.897Z,2.6
2023-02-12T20:39:05.366Z,3
2023-02-12T20:44:32.729Z,2.8
2023-02-12T20:50:13.014Z,2.7
2023-02-12T20:55:48.986Z,2.5
2023-02-12T21:01:27.895Z,2.5
2023-02-12T21:07:10.800Z,2.2
2023-02-12T21:12:44.389Z,1.9
2023-02-12T21:17:59.770Z,2.1
2023-02-12T21:23:27.349Z,2
2023-02-12T21:29:05.824Z,2.2
2023-02-12T21:34:34.705Z,2.2
2023-02-12T21:40:28.570Z,2.7
2023-02-12T21:45:41.717Z,2.9
2023-02-12T21:51:27.389Z,2.8
2023-02-12T21:56:51.277Z,2.8
2023-02-12T22:02:29.620Z,1.3
2023-02-12T22:07:55.864Z,0.9
2023-02-12T22:13:39.453Z,0.9
2023-02-12T22:19:04.193Z,1
2023-02-12T22:24:35.743Z,1.3
2023-02-12T22:30:10.963Z,1.1
2023-02-12T22:35:49.983Z,0.8
2023-02-12T22:41:27.385Z,0.8
2023-02-12T22:46:47.849Z,0.7
2023-02-12T22:52:18.579Z,0.6
2023-02-12T22:57:59.442Z,0.5
2023-02-12T23:03:32.767Z,0.6
2023-02-12T23:08:56.865Z,0.7
2023-02-12T23:14:25.364Z,0.6
2023-02-12T23:20:13.617Z,0.7
2023-02-12T23:25:28.129Z,0.8
2023-02-12T23:31:01.191Z,0.6
2023-02-12T23:36:32.339Z,0.2
2023-02-12T23:42:12.956Z,0.1
2023-02-12T23:48:02.104Z,0.3
2023-02-12T23:53:12.787Z,0.2
2023-02-12T23:59:02.493Z,0.2
